Time;durP1;ratioP1;P1;durP2;ratioP2;P2;SDS_P1;SDS_P2;PMS_P1;PMS_P2;Temp;Humidity;BMP_temperature;BMP_pressure;BME280_temperature;BME280_humidity;BME280_pressure;Samples;Min_cycle;Max_cycle;Signal;HPM_P1;HPM_P2
2022/07/21 00:02:57;;;;;;;14.18;11.43;;;;;;;19.79;100.00;99902.06;10379003;28;20041;-69
2022/07/21 00:07:58;;;;;;;16.20;11.98;;;;;;;19.63;100.00;99883.94;10379331;28;20441;-69
2022/07/21 00:12:59;;;;;;;14.05;11.98;;;;;;;19.71;100.00;99895.16;10379541;28;20042;-70
2022/07/21 00:18:00;;;;;;;14.73;11.95;;;;;;;19.75;100.00;99888.25;10378886;28;20073;-69
2022/07/21 00:23:01;;;;;;;18.42;12.05;;;;;;;19.86;100.00;99913.53;10378782;28;20038;-69
2022/07/21 00:28:04;;;;;;;14.10;12.60;;;;;;;18.96;100.00;99769.44;10378425;28;20053;-69
2022/07/21 00:33:04;;;;;;;14.13;11.60;;;;;;;19.43;100.00;99823.19;10378025;28;20046;-69
2022/07/21 00:38:05;;;;;;;19.60;12.02;;;;;;;19.85;100.00;99893.03;10377843;28;20042;-69
2022/07/21 00:43:06;;;;;;;18.25;12.95;;;;;;;19.87;100.00;99888.22;10378065;28;20046;-69
2022/07/21 00:48:07;;;;;;;14.43;12.13;;;;;;;19.59;100.00;99841.31;10377934;28;20132;-69
2022/07/21 00:53:08;;;;;;;22.15;12.15;;;;;;;19.84;100.00;99880.63;10377760;28;20077;-69
2022/07/21 00:58:09;;;;;;;15.38;11.90;;;;;;;19.78;100.00;99898.56;10377062;28;20069;-69
2022/07/21 01:03:10;;;;;;;15.60;11.95;;;;;;;19.37;100.00;99832.22;10376726;28;20048;-69
2022/07/21 01:08:12;;;;;;;26.95;12.00;;;;;;;19.75;100.00;99892.84;10377042;28;20034;-69
2022/07/21 01:13:13;;;;;;;29.38;11.80;;;;;;;19.74;100.00;99880.41;10376792;28;20450;-69
2022/07/21 01:18:14;;;;;;;13.90;11.40;;;;;;;19.72;100.00;99891.44;10377073;28;20460;-69
2022/07/21 01:23:15;;;;;;;13.98;11.18;;;;;;;19.73;100.00;99876.06;10376580;28;20084;-69
2022/07/21 01:28:17;;;;;;;11.63;10.40;;;;;;;19.76;100.00;99878.28;10376276;28;20038;-69
2022/07/21 01:33:17;;;;;;;21.45;11.70;;;;;;;19.77;100.00;99869.97;10375558;28;20049;-69
2022/07/21 01:43:38;;;;;;;25.90;11.75;;;;;;;19.75;100.00;99872.09;10375282;28;20099;-69
2022/07/21 01:48:43;;;;;;;20.65;11.55;;;;;;;19.71;100.00;99860.13;10375422;28;20474;-69
2022/07/21 01:53:44;;;;;;;26.90;13.07;;;;;;;19.70;100.00;99860.38;10374772;28;20410;-69
2022/07/21 01:58:44;;;;;;;17.13;12.68;;;;;;;19.63;100.00;99838.94;10374616;28;20053;-69
2022/07/21 02:03:47;;;;;;;25.05;13.43;;;;;;;19.58;100.00;99815.41;10372328;28;20045;-69
2022/07/21 02:08:48;;;;;;;17.70;13.13;;;;;;;19.73;100.00;99849.13;10374814;28;20111;-70
2022/07/21 02:13:49;;;;;;;32.35;13.88;;;;;;;19.82;100.00;99859.28;10374211;28;20121;-69
2022/07/21 02:18:50;;;;;;;25.30;14.40;;;;;;;19.37;100.00;99772.97;10373683;28;20469;-69
2022/07/21 02:23:52;;;;;;;18.27;13.85;;;;;;;19.92;100.00;99865.91;10374185;28;20034;-69
2022/07/21 02:28:53;;;;;;;18.60;14.27;;;;;;;19.81;100.00;99840.66;10373617;28;20049;-69
2022/07/21 02:33:54;;;;;;;15.40;13.73;;;;;;;19.61;100.00;99798.75;10373437;28;20112;-69
2022/07/21 02:38:55;;;;;;;16.27;13.15;;;;;;;20.05;100.00;99879.94;10372968;28;20046;-69
2022/07/21 02:43:56;;;;;;;27.17;13.20;;;;;;;20.00;100.00;99860.97;10374152;28;20034;-69
2022/07/21 02:48:57;;;;;;;17.52;13.23;;;;;;;20.11;100.00;99872.75;10373715;28;20046;-69
2022/07/21 02:53:57;;;;;;;16.73;12.40;;;;;;;20.12;100.00;99862.78;10373015;28;20045;-69
2022/07/21 02:58:58;;;;;;;17.38;11.68;;;;;;;20.04;100.00;99837.88;10373567;28;20072;-69
2022/07/21 03:03:59;;;;;;;14.77;12.05;;;;;;;20.28;100.00;99864.69;10371947;28;20041;-68
2022/07/21 03:09:00;;;;;;;12.48;11.13;;;;;;;19.90;100.00;99788.00;10372626;28;20379;-69
2022/07/21 03:14:01;;;;;;;15.05;10.90;;;;;;;20.42;100.00;99866.00;10373414;28;20509;-70
2022/07/21 03:19:01;;;;;;;14.07;10.88;;;;;;;20.45;100.00;99862.00;10372710;28;20054;-69
2022/07/21 03:24:02;;;;;;;13.43;8.80;;;;;;;20.51;100.00;99869.13;10372392;28;20061;-69
2022/07/21 03:29:03;;;;;;;13.52;10.00;;;;;;;20.00;100.00;99772.00;10372172;28;20042;-69
2022/07/21 03:34:04;;;;;;;12.60;9.18;;;;;;;20.56;100.00;99863.84;10372484;28;20572;-69
2022/07/21 03:39:05;;;;;;;13.98;9.88;;;;;;;20.46;100.00;99853.69;10372891;28;20050;-69
2022/07/21 03:44:05;;;;;;;15.98;9.88;;;;;;;20.48;100.00;99858.81;10372099;28;20070;-69
2022/07/21 03:49:06;;;;;;;14.68;11.18;;;;;;;20.48;100.00;99854.22;10372127;28;20144;-69
2022/07/21 03:54:07;;;;;;;14.77;11.05;;;;;;;20.51;100.00;99853.75;10371956;28;20045;-69
2022/07/21 03:59:08;;;;;;;15.57;12.57;;;;;;;20.60;100.00;99850.69;10372630;28;20050;-69
2022/07/21 04:04:08;;;;;;;13.13;11.00;;;;;;;20.65;100.00;99846.19;10371684;28;20042;-69
2022/07/21 04:09:10;;;;;;;19.13;11.07;;;;;;;20.58;100.00;99825.81;10371511;28;20136;-69
2022/07/21 04:14:11;;;;;;;14.55;11.77;;;;;;;20.69;100.00;99833.81;10372240;28;20096;-69
2022/07/21 04:19:12;;;;;;;19.15;12.55;;;;;;;20.83;100.00;99846.97;10377838;28;20069;-70
2022/07/21 04:24:12;;;;;;;16.55;12.38;;;;;;;20.89;100.00;99860.31;10379211;28;20065;-69
2022/07/21 04:29:13;;;;;;;25.38;12.82;;;;;;;20.98;100.00;99858.00;10373166;28;20478;-70
2022/07/21 04:34:14;;;;;;;17.45;12.48;;;;;;;21.13;100.00;99850.09;10353476;28;20060;-70
2022/07/21 04:39:15;;;;;;;17.83;12.82;;;;;;;21.23;100.00;99835.09;10362801;28;20049;-70
2022/07/21 04:44:15;;;;;;;15.65;12.30;;;;;;;21.05;100.00;99784.91;10372138;28;20080;-70
2022/07/21 04:49:17;;;;;;;18.13;13.65;;;;;;;21.34;100.00;99807.16;10369929;28;20117;-69
2022/07/21 04:54:17;;;;;;;15.05;12.15;;;;;;;21.67;100.00;99821.59;10347581;28;20481;-74
2022/07/21 04:59:18;;;;;;;15.98;12.77;;;;;;;21.58;100.00;99807.72;10337780;28;20130;-72
2022/07/21 05:04:20;;;;;;;18.67;14.02;;;;;;;21.87;100.00;99825.34;10337597;28;20108;-72
2022/07/21 05:09:21;;;;;;;16.38;13.48;;;;;;;21.90;100.00;99824.03;10337074;28;20058;-72
2022/07/21 05:14:22;;;;;;;20.67;14.27;;;;;;;21.94;100.00;99789.16;10336954;28;20062;-73
2022/07/21 05:19:23;;;;;;;23.00;16.23;;;;;;;22.36;100.00;99783.06;10336122;28;20506;-72
2022/07/21 05:24:23;;;;;;;26.40;15.88;;;;;;;22.91;100.00;99779.06;10336237;28;20455;-72
2022/07/21 05:29:24;;;;;;;24.88;14.32;;;;;;;23.42;100.00;99788.25;10334795;28;20056;-72
2022/07/21 05:34:25;;;;;;;24.25;16.67;;;;;;;23.42;100.00;99733.22;10335602;28;20045;-72
2022/07/21 05:39:26;;;;;;;20.52;14.07;;;;;;;24.24;99.44;99752.31;10334924;28;20069;-72
2022/07/21 05:44:26;;;;;;;17.05;13.02;;;;;;;24.87;93.48;99741.06;10336028;28;20046;-72
2022/07/21 05:49:27;;;;;;;14.73;12.45;;;;;;;24.95;88.70;99684.25;10334948;28;20062;-72
2022/07/21 05:54:28;;;;;;;15.77;13.40;;;;;;;25.13;89.62;99733.59;10334430;28;20042;-72
2022/07/21 05:59:29;;;;;;;13.40;11.18;;;;;;;25.23;88.20;99744.47;10334672;28;20046;-72
2022/07/21 06:04:30;;;;;;;15.55;10.75;;;;;;;25.01;88.75;99732.03;10333982;28;20043;-72
2022/07/21 06:09:31;;;;;;;14.82;12.00;;;;;;;24.72;89.52;99728.34;10333573;28;20421;-72
2022/07/21 06:14:32;;;;;;;18.13;13.35;;;;;;;24.17;89.08;99664.91;10335076;28;20038;-72
2022/07/21 06:19:32;;;;;;;16.13;13.55;;;;;;;24.86;88.33;99707.66;10333816;28;20490;-72
2022/07/21 06:24:33;;;;;;;14.88;12.00;;;;;;;25.19;84.28;99638.22;10333810;28;20042;-73
2022/07/21 06:29:34;;;;;;;13.65;10.80;;;;;;;25.88;81.14;99679.06;10333409;28;20152;-72
2022/07/21 06:34:35;;;;;;;18.80;10.35;;;;;;;26.03;80.48;99676.19;10333923;28;20034;-72
2022/07/21 06:39:41;;;;;;;9.43;8.43;;;;;;;26.21;77.34;99703.81;10332926;28;20050;-72
2022/07/21 06:44:42;;;;;;;14.07;8.50;;;;;;;26.48;74.49;99695.88;10332418;28;20471;-72
2022/07/21 06:49:42;;;;;;;16.60;8.52;;;;;;;26.88;73.63;99701.97;10333401;28;20097;-72
2022/07/21 06:54:43;;;;;;;12.20;5.78;;;;;;;27.13;70.46;99695.38;10332628;28;20052;-72
2022/07/21 06:59:44;;;;;;;12.43;7.63;;;;;;;26.89;68.38;99645.56;10332457;28;20053;-72
2022/07/21 07:04:45;;;;;;;9.65;6.15;;;;;;;27.18;67.94;99689.88;10332326;28;20482;-71
2022/07/21 07:09:45;;;;;;;7.28;5.07;;;;;;;27.26;66.42;99667.41;10332344;28;20053;-72
2022/07/21 07:14:46;;;;;;;6.65;5.68;;;;;;;27.61;65.12;99687.09;10331471;28;20045;-71
2022/07/21 07:19:48;;;;;;;12.52;5.90;;;;;;;27.30;65.39;99651.28;10331405;28;20050;-72
2022/07/21 07:24:48;;;;;;;6.43;5.13;;;;;;;27.05;64.92;99609.63;10331296;28;20053;-70
2022/07/21 07:29:49;;;;;;;13.43;5.20;;;;;;;27.45;64.51;99666.59;10331513;28;20051;-71
2022/07/21 07:34:50;;;;;;;6.82;5.10;;;;;;;27.31;63.94;99664.63;10329881;28;20092;-71
2022/07/21 07:39:51;;;;;;;15.50;5.97;;;;;;;27.16;64.60;99602.13;10330803;28;20053;-71
2022/07/21 07:44:52;;;;;;;10.15;6.15;;;;;;;27.57;64.10;99660.69;10331563;28;20134;-71
2022/07/21 07:49:52;;;;;;;7.60;5.05;;;;;;;27.63;64.19;99662.22;10332799;28;20070;-71
2022/07/21 07:54:53;;;;;;;7.85;4.38;;;;;;;27.53;62.77;99660.47;10339679;28;20102;-71
2022/07/21 07:59:54;;;;;;;33.38;5.65;;;;;;;27.39;63.05;99643.22;10339272;28;20073;-71
2022/07/21 08:04:55;;;;;;;18.42;4.75;;;;;;;27.41;62.20;99643.75;10338530;28;20100;-70
2022/07/21 08:09:56;;;;;;;12.57;4.38;;;;;;;27.83;61.28;99633.81;10338765;28;20478;-71
2022/07/21 08:14:57;;;;;;;12.10;4.57;;;;;;;28.38;60.43;99628.41;10338354;28;20043;-71
2022/07/21 08:19:57;;;;;;;6.90;4.30;;;;;;;28.34;59.72;99620.00;10337988;28;20120;-71
2022/07/21 08:24:58;;;;;;;6.57;3.67;;;;;;;27.90;59.28;99612.38;10338190;28;20042;-71
2022/07/21 08:29:59;;;;;;;13.63;4.47;;;;;;;27.99;59.29;99564.97;10338464;28;20471;-71
2022/07/21 08:35:00;;;;;;;9.27;3.50;;;;;;;29.05;55.91;99612.25;10338339;28;20066;-70
2022/07/21 08:40:01;;;;;;;4.05;3.28;;;;;;;29.41;53.58;99605.94;10337689;28;20101;-70
2022/07/21 08:45:02;;;;;;;4.80;2.92;;;;;;;29.77;50.82;99580.44;10337065;28;20041;-71
2022/07/21 08:50:05;;;;;;;7.28;2.90;;;;;;;30.08;50.05;99596.03;10335824;28;20128;-70
2022/07/21 08:55:06;;;;;;;10.23;3.10;;;;;;;30.00;51.11;99579.25;10337192;28;20044;-71
2022/07/21 09:00:08;;;;;;;10.68;3.10;;;;;;;29.70;51.41;99588.28;10336344;28;20494;-71
2022/07/21 09:05:10;;;;;;;4.63;2.80;;;;;;;29.01;51.58;99531.91;10337598;28;20541;-71
2022/07/21 09:10:11;;;;;;;6.20;2.73;;;;;;;29.27;51.12;99595.06;10336621;28;20038;-71
2022/07/21 09:15:18;;;;;;;8.00;2.70;;;;;;;29.25;50.54;99585.53;10335896;28;20482;-71
2022/07/21 09:20:24;;;;;;;4.78;2.33;;;;;;;28.89;48.53;99524.28;10335905;28;20046;-72
2022/07/21 09:25:48;;;;;;;12.30;3.05;;;;;;;29.62;47.17;99578.09;10335947;28;20047;-71
2022/07/21 09:30:53;;;;;;;5.55;2.50;;;;;;;29.92;44.37;99565.53;10334752;28;20046;-72
2022/07/21 09:36:01;;;;;;;7.32;2.10;;;;;;;29.89;46.19;99566.97;10336286;28;20081;-71
2022/07/21 09:41:11;;;;;;;5.53;2.08;;;;;;;29.63;45.16;99569.56;10335503;28;20042;-71
2022/07/21 09:46:17;;;;;;;3.60;2.08;;;;;;;29.50;46.66;99564.97;10334973;28;20491;-71
2022/07/21 09:51:25;;;;;;;14.18;3.10;;;;;;;29.92;44.62;99562.78;10335274;28;20045;-71
2022/07/21 09:56:30;;;;;;;4.15;2.17;;;;;;;29.84;44.15;99541.66;10334925;28;20552;-71
2022/07/21 10:01:31;;;;;;;5.13;2.17;;;;;;;29.79;44.65;99561.75;10334666;28;20038;-71
2022/07/21 10:06:34;;;;;;;4.28;2.17;;;;;;;29.79;43.92;99561.75;10334116;28;20049;-70
2022/07/21 10:11:36;;;;;;;10.98;2.22;;;;;;;29.76;43.98;99548.69;10334173;28;20046;-71
2022/07/21 10:16:36;;;;;;;11.38;2.50;;;;;;;29.69;44.01;99553.81;10333502;28;20097;-71
2022/07/21 10:21:55;;;;;;;10.95;2.15;;;;;;;29.65;41.42;99537.22;10335635;28;20498;-71
2022/07/21 10:27:11;;;;;;;2.75;1.70;;;;;;;29.43;40.42;99487.97;10345175;28;20124;-70
2022/07/21 10:32:12;;;;;;;7.45;2.30;;;;;;;29.66;42.09;99518.88;10334519;28;20080;-71
2022/07/21 10:37:38;;;;;;;5.13;2.00;;;;;;;30.08;41.93;99538.50;10346298;28;20045;-73
2022/07/21 10:42:39;;;;;;;5.47;1.92;;;;;;;30.27;40.90;99528.09;10347954;28;20089;-71
2022/07/21 10:47:41;;;;;;;9.75;2.33;;;;;;;30.62;39.09;99509.78;10348809;28;20054;-77
2022/07/21 10:52:41;;;;;;;4.75;1.80;;;;;;;30.92;39.24;99518.19;10348462;28;20112;-72
2022/07/21 10:57:46;;;;;;;8.63;2.00;;;;;;;31.05;38.54;99516.41;10347251;28;20096;-72
2022/07/21 11:02:52;;;;;;;8.52;1.88;;;;;;;30.78;37.46;99498.31;10346801;28;20045;-72
2022/07/21 11:08:08;;;;;;;15.45;3.00;;;;;;;30.32;38.80;99467.69;10348976;28;20133;-71
2022/07/21 11:13:09;;;;;;;4.63;1.88;;;;;;;29.98;39.31;99462.94;10350740;28;20057;-71
2022/07/21 11:18:11;;;;;;;44.22;3.78;;;;;;;30.33;39.75;99518.59;10348465;28;20064;-72
2022/07/21 11:23:12;;;;;;;7.75;2.03;;;;;;;30.29;39.30;99519.56;10347726;28;20093;-72
2022/07/21 11:28:17;;;;;;;4.88;1.83;;;;;;;30.14;38.85;99496.16;10345472;28;20041;-71
2022/07/21 11:33:22;;;;;;;40.75;4.57;;;;;;;30.07;41.06;99484.88;10346862;28;20070;-72
2022/07/21 11:38:23;;;;;;;11.25;2.22;;;;;;;30.10;40.13;99495.19;10347441;28;20041;-72
2022/07/21 11:43:44;;;;;;;4.28;2.30;;;;;;;29.99;40.74;99462.59;10348566;28;20034;-71
2022/07/21 11:48:45;;;;;;;4.80;1.90;;;;;;;30.32;40.00;99517.00;10349761;28;20426;-71
2022/07/21 11:53:46;;;;;;;9.95;2.95;;;;;;;30.38;40.68;99512.19;10346933;28;20044;-72
2022/07/21 11:58:48;;;;;;;8.35;2.78;;;;;;;30.32;40.50;99514.25;10356756;28;20513;-71
2022/07/21 12:03:50;;;;;;;9.57;2.40;;;;;;;30.16;41.26;99499.38;10370498;28;20128;-71
2022/07/21 12:08:51;;;;;;;7.40;2.22;;;;;;;29.42;40.31;99407.03;10370835;28;20124;-71
2022/07/21 12:13:57;;;;;;;8.43;2.15;;;;;;;29.88;40.23;99515.25;10371659;28;20524;-71
2022/07/21 12:19:15;;;;;;;3.97;2.03;;;;;;;29.67;40.21;99482.16;10365423;28;20041;-71
2022/07/21 12:24:16;;;;;;;14.95;3.17;;;;;;;29.12;43.99;99434.88;10356715;28;20540;-70
2022/07/21 12:29:28;;;;;;;10.60;2.38;;;;;;;29.13;42.15;99458.34;10370428;28;20561;-67
2022/07/21 12:34:29;;;;;;;13.25;2.83;;;;;;;29.22;42.51;99512.31;10349277;28;20072;-67
2022/07/21 12:44:49;;;;;;;5.85;2.40;;;;;;;28.85;41.98;99506.88;10336421;28;20242;-67
2022/07/21 12:50:05;;;;;;;8.30;2.38;;;;;;;28.70;42.09;99485.38;10348392;28;20053;-68
2022/07/21 12:55:07;;;;;;;5.07;2.35;;;;;;;28.36;41.53;99425.75;10365344;28;20050;-68
2022/07/21 13:00:08;;;;;;;9.75;2.03;;;;;;;28.86;41.09;99500.28;10351763;28;20041;-68
2022/07/21 13:05:09;;;;;;;4.57;2.10;;;;;;;28.55;41.25;99444.75;10376928;28;20038;-67
2022/07/21 13:10:10;;;;;;;6.65;2.50;;;;;;;28.89;41.19;99516.06;10376392;28;20128;-68
2022/07/21 13:15:12;;;;;;;3.22;1.83;;;;;;;28.07;41.20;99399.66;10375840;28;20111;-68
2022/07/21 13:20:14;;;;;;;8.88;2.40;;;;;;;28.72;41.32;99526.06;10376298;28;20112;-67
2022/07/21 13:25:15;;;;;;;6.70;2.92;;;;;;;28.61;41.37;99518.09;10375890;28;20088;-67
2022/07/21 13:30:17;;;;;;;4.97;1.70;;;;;;;28.57;40.70;99533.50;10375686;28;20096;-67
2022/07/21 13:35:18;;;;;;;6.57;2.03;;;;;;;28.53;40.80;99526.22;10375511;28;20046;-67
2022/07/21 13:40:19;;;;;;;9.90;1.92;;;;;;;28.04;40.62;99456.81;10374719;28;20037;-68
2022/07/21 13:45:20;;;;;;;4.97;1.65;;;;;;;28.53;40.36;99535.22;10374431;28;20104;-67
2022/07/21 13:50:21;;;;;;;6.18;1.60;;;;;;;28.53;40.37;99531.69;10373239;28;20069;-68
2022/07/21 13:55:22;;;;;;;5.03;1.88;;;;;;;28.49;39.67;99526.03;10369412;28;20072;-67
2022/07/21 14:00:23;;;;;;;4.80;1.40;;;;;;;28.37;39.64;99518.34;10334185;28;20035;-68
2022/07/21 14:05:24;;;;;;;5.68;1.80;;;;;;;28.49;39.30;99534.22;10366713;28;20038;-67
2022/07/21 14:10:25;;;;;;;2.80;1.38;;;;;;;28.56;39.02;99512.75;10389648;28;20042;-68
2022/07/21 14:15:26;;;;;;;7.30;1.73;;;;;;;28.57;39.19;99519.84;10354111;28;20490;-68
2022/07/21 14:20:27;;;;;;;3.47;1.52;;;;;;;28.53;39.37;99524.28;10333634;28;20501;-68
2022/07/21 14:25:28;;;;;;;7.47;1.40;;;;;;;28.46;38.78;99518.44;10333676;28;20035;-68
2022/07/21 14:30:29;;;;;;;3.45;1.30;;;;;;;28.40;39.12;99533.31;10374106;28;20046;-68
2022/07/21 14:35:30;;;;;;;5.45;1.40;;;;;;;28.39;38.98;99531.66;10373574;28;20034;-68
2022/07/21 14:40:31;;;;;;;9.07;1.40;;;;;;;28.36;38.61;99538.56;10372840;28;20405;-66
2022/07/21 14:45:32;;;;;;;4.13;1.15;;;;;;;28.40;37.59;99538.78;10373989;28;20441;-67
2022/07/21 14:50:34;;;;;;;5.97;1.38;;;;;;;27.95;37.63;99473.88;10372294;28;20068;-67
2022/07/21 14:55:34;;;;;;;11.63;1.77;;;;;;;28.02;38.45;99484.38;10372746;28;20049;-67
2022/07/21 15:00:35;;;;;;;4.60;1.10;;;;;;;28.38;37.53;99543.72;10362811;28;20046;-67
2022/07/21 15:05:36;;;;;;;2.30;1.00;;;;;;;28.57;36.35;99546.34;10342371;28;20056;-67
2022/07/21 15:10:38;;;;;;;9.85;1.23;;;;;;;28.67;35.93;99538.72;10331784;28;20048;-67
2022/07/21 15:15:40;;;;;;;6.72;1.30;;;;;;;28.80;36.56;99544.47;10347181;28;20045;-68
2022/07/21 15:20:41;;;;;;;3.20;1.30;;;;;;;28.76;35.95;99538.81;10331583;28;20038;-68
2022/07/21 15:25:42;;;;;;;5.15;0.98;;;;;;;28.68;36.07;99539.53;10332465;28;20462;-68
2022/07/21 15:30:43;;;;;;;7.35;1.63;;;;;;;28.57;36.71;99551.81;10332079;28;20045;-68
2022/07/21 15:35:44;;;;;;;5.15;1.70;;;;;;;28.38;37.19;99540.97;10331667;28;20042;-68
2022/07/21 15:40:45;;;;;;;4.72;1.15;;;;;;;28.25;37.52;99550.03;10339225;28;20067;-68
2022/07/21 15:45:47;;;;;;;3.63;1.13;;;;;;;28.16;37.79;99563.56;10354656;28;20414;-71
2022/07/21 15:50:47;;;;;;;5.70;1.90;;;;;;;28.05;38.50;99568.41;10343371;28;20101;-72
2022/07/21 15:55:48;;;;;;;69.88;4.70;;;;;;;27.39;40.11;99488.56;10372099;28;20485;-72
2022/07/21 16:00:49;;;;;;;9.30;1.67;;;;;;;27.75;39.46;99565.13;10371799;28;20497;-71
2022/07/21 16:05:51;;;;;;;26.08;3.65;;;;;;;27.66;40.60;99571.56;10364730;28;20112;-72
2022/07/21 16:10:53;;;;;;;30.83;3.67;;;;;;;27.46;40.07;99570.00;10338247;28;20057;-71
2022/07/21 16:15:54;;;;;;;25.98;3.00;;;;;;;27.37;40.42;99572.59;10347738;28;20096;-73
2022/07/21 16:20:55;;;;;;;17.15;2.70;;;;;;;26.32;40.97;99438.47;10338708;28;20046;-73
2022/07/21 16:25:55;;;;;;;16.55;2.17;;;;;;;26.95;40.84;99574.31;10338688;28;20801;-72
2022/07/21 16:30:56;;;;;;;20.02;2.30;;;;;;;26.81;41.57;99577.00;10345984;28;20048;-72
2022/07/21 16:35:57;;;;;;;20.48;2.13;;;;;;;26.11;42.07;99500.56;10380223;28;20498;-71
2022/07/21 16:40:58;;;;;;;29.58;2.97;;;;;;;26.44;41.93;99577.72;10357774;28;20053;-70
2022/07/21 16:45:58;;;;;;;47.67;4.30;;;;;;;26.24;44.22;99580.72;10376976;28;20060;-71
2022/07/21 16:50:59;;;;;;;59.55;5.22;;;;;;;25.95;46.20;99587.00;10368304;28;20169;-71
2022/07/21 16:56:01;;;;;;;36.75;3.25;;;;;;;25.69;47.15;99600.00;10368801;28;20042;-69
2022/07/21 17:01:01;;;;;;;36.00;3.75;;;;;;;25.02;47.53;99527.16;10365581;28;20077;-68
2022/07/21 17:06:02;;;;;;;15.65;2.55;;;;;;;24.62;48.89;99513.84;10377195;28;20076;-68
2022/07/21 17:11:03;;;;;;;13.77;2.10;;;;;;;24.40;49.85;99515.00;10375962;28;20497;-70
2022/07/21 17:16:05;;;;;;;24.02;2.55;;;;;;;23.88;50.37;99462.09;10376194;28;20422;-70
2022/07/21 17:21:07;;;;;;;30.25;3.55;;;;;;;24.58;51.80;99608.63;10375580;28;20091;-69
2022/07/21 17:26:08;;;;;;;28.08;2.00;;;;;;;24.34;52.20;99601.09;10376155;28;20042;-70
2022/07/21 17:31:09;;;;;;;10.88;2.20;;;;;;;24.44;51.74;99621.16;10376120;28;20469;-69
2022/07/21 17:36:10;;;;;;;5.47;1.63;;;;;;;24.51;49.01;99619.78;10375395;28;20118;-70
2022/07/21 17:41:11;;;;;;;10.32;1.55;;;;;;;24.41;48.08;99598.09;10375891;28;20402;-70
2022/07/21 17:46:12;;;;;;;3.70;1.50;;;;;;;24.14;47.83;99555.84;10374637;28;20042;-70
2022/07/21 17:51:15;;;;;;;4.45;1.60;;;;;;;24.52;46.70;99605.13;10369480;28;20056;-69
2022/07/21 17:56:15;;;;;;;7.47;1.70;;;;;;;24.71;46.74;99650.66;10375061;28;20460;-70
2022/07/21 18:01:21;;;;;;;3.50;1.20;;;;;;;24.68;46.59;99649.34;10374623;28;20034;-70
2022/07/21 18:06:22;;;;;;;4.05;1.52;;;;;;;24.70;47.11;99655.28;10374134;28;20076;-70
2022/07/21 18:11:23;;;;;;;5.60;1.25;;;;;;;24.73;46.57;99649.28;10374280;28;20045;-70
2022/07/21 18:16:24;;;;;;;7.18;1.40;;;;;;;24.64;46.45;99640.09;10373993;28;20185;-69
2022/07/21 18:21:25;;;;;;;8.13;1.65;;;;;;;24.68;46.88;99657.47;10374106;28;20041;-70
2022/07/21 18:26:25;;;;;;;9.23;2.65;;;;;;;24.54;47.21;99651.81;10374942;28;20041;-70
2022/07/21 18:31:26;;;;;;;6.75;2.10;;;;;;;24.11;48.01;99593.56;10373407;28;20510;-70
2022/07/21 18:36:27;;;;;;;5.22;1.73;;;;;;;24.52;47.77;99680.34;10373314;28;20387;-70
2022/07/21 18:41:28;;;;;;;5.00;1.70;;;;;;;24.47;48.00;99694.75;10374262;28;20042;-70
2022/07/21 18:46:29;;;;;;;6.63;1.70;;;;;;;24.33;47.89;99661.91;10374275;28;20111;-70
2022/07/21 18:51:30;;;;;;;6.85;2.00;;;;;;;24.52;48.27;99696.63;10372640;28;20056;-70
2022/07/21 18:56:31;;;;;;;5.97;1.67;;;;;;;24.43;48.84;99692.84;10372508;28;20053;-70
2022/07/21 19:01:31;;;;;;;7.32;1.85;;;;;;;24.37;49.10;99689.31;10370940;28;20494;-71
2022/07/21 19:06:32;;;;;;;7.05;1.70;;;;;;;24.19;50.00;99679.03;10356205;28;20116;-70
2022/07/21 19:11:33;;;;;;;8.50;2.67;;;;;;;24.31;50.89;99703.97;10348432;28;20042;-69
2022/07/21 19:16:34;;;;;;;9.43;2.53;;;;;;;24.29;51.80;99703.44;10331917;28;20046;-70
2022/07/21 19:21:35;;;;;;;6.80;2.40;;;;;;;24.00;53.07;99654.38;10333009;28;20042;-70
2022/07/21 19:26:36;;;;;;;8.93;2.95;;;;;;;23.41;53.71;99585.22;10369609;28;20482;-70
2022/07/21 19:31:37;;;;;;;9.40;2.80;;;;;;;24.06;54.36;99702.94;10356762;28;20054;-70
2022/07/21 19:36:38;;;;;;;6.03;2.75;;;;;;;24.11;55.01;99708.34;10340614;28;20501;-70
2022/07/21 19:41:38;;;;;;;18.48;3.50;;;;;;;24.06;55.63;99707.53;10370359;28;20572;-70
2022/07/21 19:46:39;;;;;;;6.10;3.53;;;;;;;24.00;55.83;99700.50;10374832;28;20062;-70
2022/07/21 19:51:41;;;;;;;8.23;3.78;;;;;;;23.88;56.88;99700.78;10339175;28;20054;-70
2022/07/21 19:56:42;;;;;;;17.65;4.18;;;;;;;23.90;57.35;99717.56;10338970;28;20117;-70
2022/07/21 20:01:43;;;;;;;6.45;3.72;;;;;;;23.88;57.56;99717.84;10339442;28;20054;-69
2022/07/21 20:06:45;;;;;;;11.02;3.47;;;;;;;23.82;57.81;99715.41;10339666;28;20684;-70
2022/07/21 20:11:46;;;;;;;7.88;3.80;;;;;;;23.65;58.22;99692.03;10339241;28;20044;-70
2022/07/21 20:16:47;;;;;;;7.95;3.33;;;;;;;23.63;58.60;99707.78;10338684;28;20038;-70
2022/07/21 20:21:47;;;;;;;7.50;3.15;;;;;;;23.71;58.59;99746.31;10337997;28;20498;-69
2022/07/21 20:26:48;;;;;;;6.18;2.92;;;;;;;23.74;59.15;99756.63;10337622;28;20039;-69
2022/07/21 20:31:50;;;;;;;6.00;3.03;;;;;;;23.56;59.65;99738.94;10338380;28;20046;-70
2022/07/21 20:36:51;;;;;;;12.13;3.13;;;;;;;23.21;60.82;99692.53;10337803;28;20116;-70
2022/07/21 20:41:52;;;;;;;12.32;3.45;;;;;;;23.52;61.92;99760.34;10337338;28;20184;-70
2022/07/21 20:46:53;;;;;;;18.65;3.20;;;;;;;23.13;64.87;99778.94;10337191;28;20554;-70
2022/07/21 20:51:55;;;;;;;10.85;3.42;;;;;;;22.62;69.07;99779.44;10354837;28;20049;-71
2022/07/21 20:56:56;;;;;;;7.63;3.42;;;;;;;22.04;73.62;99762.19;10392972;28;20033;-72
2022/07/21 21:01:57;;;;;;;9.82;4.05;;;;;;;21.73;77.14;99745.72;10376879;28;20037;-72
2022/07/21 21:06:58;;;;;;;8.55;3.58;;;;;;;21.66;79.10;99745.13;10377452;28;20042;-72
2022/07/21 21:12:00;;;;;;;8.85;4.10;;;;;;;21.45;81.53;99721.63;10377236;28;20504;-72
2022/07/21 21:17:01;;;;;;;11.05;4.20;;;;;;;21.39;83.42;99745.13;10376816;28;20034;-72
2022/07/21 21:22:01;;;;;;;17.10;4.90;;;;;;;21.27;84.82;99714.66;10376856;28;20087;-71
2022/07/21 21:27:02;;;;;;;11.30;4.60;;;;;;;21.35;86.05;99706.09;10376643;28;20034;-71
2022/07/21 21:32:04;;;;;;;9.93;5.82;;;;;;;21.47;87.76;99728.41;10376441;28;20083;-71
2022/07/21 21:37:05;;;;;;;9.55;4.78;;;;;;;20.99;88.50;99651.72;10376901;28;20049;-71
2022/07/21 21:42:06;;;;;;;7.90;4.85;;;;;;;21.00;88.96;99661.47;10376262;28;20052;-70
2022/07/21 21:47:07;;;;;;;15.10;5.03;;;;;;;20.98;89.92;99669.81;10375808;28;20417;-71
2022/07/21 21:52:08;;;;;;;16.50;4.40;;;;;;;21.45;90.43;99741.38;10374963;28;20061;-71
2022/07/21 21:57:08;;;;;;;8.88;4.60;;;;;;;21.44;91.12;99755.94;10375286;28;20064;-71
2022/07/21 22:02:09;;;;;;;8.70;4.20;;;;;;;21.38;91.49;99730.75;10375886;28;20038;-70
2022/07/21 22:07:10;;;;;;;9.43;4.60;;;;;;;21.47;91.40;99752.75;10374837;28;20037;-70
2022/07/21 22:12:11;;;;;;;9.52;4.20;;;;;;;21.46;90.90;99740.31;10374055;28;20447;-70
2022/07/21 22:17:12;;;;;;;10.95;4.40;;;;;;;21.02;91.67;99685.50;10374416;28;20041;-70
2022/07/21 22:22:13;;;;;;;6.65;3.58;;;;;;;21.19;91.82;99715.94;10374995;28;20044;-70
2022/07/21 22:27:14;;;;;;;9.60;4.35;;;;;;;20.92;92.30;99681.63;10374940;28;20064;-70
2022/07/21 22:32:14;;;;;;;8.73;4.07;;;;;;;20.89;92.92;99668.63;10374152;28;20104;-70
2022/07/21 22:37:15;;;;;;;9.52;4.20;;;;;;;21.23;92.33;99719.75;10373374;28;20092;-70
2022/07/21 22:42:16;;;;;;;10.48;4.47;;;;;;;21.31;92.79;99735.53;10374088;28;20117;-70
2022/07/21 22:47:17;;;;;;;12.98;4.30;;;;;;;21.25;93.27;99723.03;10373191;28;20584;-70
2022/07/21 22:52:18;;;;;;;18.67;4.03;;;;;;;21.27;93.80;99729.00;10372950;28;20425;-70
2022/07/21 22:57:19;;;;;;;6.22;4.20;;;;;;;21.09;93.82;99715.81;10372822;28;20061;-70
2022/07/21 23:02:20;;;;;;;9.05;4.05;;;;;;;21.06;94.24;99759.53;10372995;28;20049;-71
2022/07/21 23:07:21;;;;;;;6.88;4.22;;;;;;;20.93;94.84;99748.03;10372957;28;20104;-70
2022/07/21 23:12:21;;;;;;;8.30;4.38;;;;;;;20.94;95.02;99747.00;10372910;28;20041;-70
2022/07/21 23:17:22;;;;;;;9.27;4.50;;;;;;;20.02;95.31;99607.31;10372213;28;20046;-70